Time;durP1;ratioP1;P1;durP2;ratioP2;P2;SDS_P1;SDS_P2;PMS_P1;PMS_P2;Temp;Humidity;BMP_temperature;BMP_pressure;BME280_temperature;BME280_humidity;BME280_pressure;Samples;Min_cycle;Max_cycle;Signal;HPM_P1;HPM_P2
2023/04/16 00:00:03;;;;;;;38.93;34.80;;;8.10;89.50;;;;;;4916793;29;20185;-85
2023/04/16 00:02:29;;;;;;;39.43;35.37;;;8.10;89.60;;;;;;4916791;29;20214;-85
2023/04/16 00:04:55;;;;;;;45.57;34.90;;;8.00;89.70;;;;;;4916672;29;20746;-84
2023/04/16 00:07:20;;;;;;;46.47;35.10;;;8.00;89.70;;;;;;4917008;29;20173;-85
2023/04/16 00:09:46;;;;;;;41.13;35.03;;;8.00;89.80;;;;;;4917016;29;20168;-85
2023/04/16 00:12:11;;;;;;;40.03;34.30;;;8.00;89.90;;;;;;4916343;29;20730;-84
2023/04/16 00:14:37;;;;;;;43.83;34.13;;;8.00;89.90;;;;;;4917829;29;20640;-85
2023/04/16 00:17:03;;;;;;;40.23;35.83;;;8.00;90.00;;;;;;4916340;29;20212;-85
2023/04/16 00:19:28;;;;;;;39.20;33.53;;;8.00;90.00;;;;;;4917520;29;20232;-85
2023/04/16 00:21:54;;;;;;;47.50;36.37;;;8.00;90.00;;;;;;4916163;29;20228;-84
2023/04/16 00:24:19;;;;;;;39.23;34.60;;;8.00;90.00;;;;;;4917356;29;20652;-85
2023/04/16 00:26:45;;;;;;;38.90;34.47;;;8.00;90.10;;;;;;4917322;29;20528;-85
2023/04/16 00:29:11;;;;;;;40.77;34.30;;;8.00;90.10;;;;;;4915309;29;20208;-85
2023/04/16 00:31:36;;;;;;;40.23;34.03;;;7.90;90.10;;;;;;4916181;29;20220;-85
2023/04/16 00:34:02;;;;;;;42.33;34.90;;;7.90;90.10;;;;;;4917288;29;20193;-85
2023/04/16 00:36:28;;;;;;;40.27;33.50;;;7.90;90.10;;;;;;4917215;29;20207;-85
2023/04/16 00:38:55;;;;;;;38.07;33.83;;;7.90;90.10;;;;;;4915991;29;20189;-85
2023/04/16 00:41:21;;;;;;;38.57;34.23;;;7.90;90.10;;;;;;4915953;29;20267;-85
2023/04/16 00:43:47;;;;;;;38.43;33.30;;;7.90;90.10;;;;;;4917022;29;20324;-85
2023/04/16 00:46:14;;;;;;;38.10;34.00;;;7.90;90.10;;;;;;4917265;29;20196;-85
2023/04/16 00:48:42;;;;;;;38.73;33.20;;;7.90;90.10;;;;;;4915897;29;20671;-85
2023/04/16 00:51:08;;;;;;;35.93;32.13;;;7.90;90.20;;;;;;4915916;29;20203;-85
2023/04/16 00:53:34;;;;;;;39.40;33.30;;;7.90;90.10;;;;;;4915831;29;20296;-85
2023/04/16 00:56:02;;;;;;;38.73;33.17;;;7.90;90.20;;;;;;4917071;29;20212;-86
2023/04/16 00:58:28;;;;;;;35.77;31.87;;;8.00;90.10;;;;;;4916062;29;20194;-86
2023/04/16 01:00:55;;;;;;;35.87;32.07;;;8.00;90.10;;;;;;4916110;29;20263;-86
2023/04/16 01:03:21;;;;;;;36.53;32.00;;;8.00;90.10;;;;;;4915759;29;20204;-86
2023/04/16 01:05:48;;;;;;;39.47;32.83;;;8.00;90.00;;;;;;4916919;29;20284;-86
2023/04/16 01:08:20;;;;;;;36.73;31.80;;;8.00;90.00;;;;;;4915675;29;20180;-86
2023/04/16 01:10:46;;;;;;;35.93;31.87;;;8.00;90.00;;;;;;4915724;29;20679;-85
2023/04/16 01:13:12;;;;;;;37.73;32.90;;;8.00;89.90;;;;;;4915705;29;20196;-86
2023/04/16 01:15:38;;;;;;;37.47;31.77;;;8.00;89.80;;;;;;4915708;29;20244;-86
2023/04/16 01:18:17;;;;;;;36.77;30.93;;;8.00;89.70;;;;;;4915708;29;20221;-86
2023/04/16 01:20:44;;;;;;;35.87;31.00;;;8.00;89.60;;;;;;4916309;29;20216;-85
2023/04/16 01:23:10;;;;;;;44.00;33.53;;;8.00;89.60;;;;;;4915623;29;20287;-85
2023/04/16 01:25:36;;;;;;;36.83;32.97;;;8.00;89.60;;;;;;4916790;29;20196;-86
2023/04/16 01:28:01;;;;;;;36.57;31.60;;;8.00;89.50;;;;;;4915551;29;20674;-85
2023/04/16 01:30:27;;;;;;;35.07;31.43;;;8.00;89.60;;;;;;4916689;29;20173;-85
2023/04/16 01:32:52;;;;;;;38.97;32.53;;;8.00;89.70;;;;;;4915440;29;20207;-86
2023/04/16 01:35:18;;;;;;;37.90;32.83;;;8.00;89.60;;;;;;4916655;29;20259;-86
2023/04/16 01:37:43;;;;;;;36.33;31.10;;;8.00;89.60;;;;;;4915434;29;20267;-86
2023/04/16 01:40:10;;;;;;;37.37;32.87;;;8.00;89.60;;;;;;4918061;29;20184;-85
2023/04/16 01:42:37;;;;;;;38.90;32.73;;;8.00;89.60;;;;;;4918961;29;20197;-85
2023/04/16 01:45:03;;;;;;;36.50;30.80;;;8.00;89.60;;;;;;4919218;29;20679;-85
2023/04/16 01:47:28;;;;;;;35.33;31.53;;;8.00;89.50;;;;;;4918794;29;20176;-85
2023/04/16 01:49:54;;;;;;;39.27;32.07;;;8.00;89.60;;;;;;4920040;29;20180;-86
2023/04/16 01:52:20;;;;;;;35.53;31.77;;;8.00;89.60;;;;;;4919010;29;20588;-85
2023/04/16 01:54:45;;;;;;;36.73;31.67;;;8.00;89.50;;;;;;4918878;29;20204;-85
2023/04/16 01:57:11;;;;;;;36.93;32.93;;;8.00;89.40;;;;;;4918783;29;20556;-85
2023/04/16 01:59:36;;;;;;;36.57;32.57;;;8.00;89.40;;;;;;4920090;29;20177;-86
2023/04/16 02:02:10;;;;;;;36.93;31.93;;;8.00;89.30;;;;;;4918686;29;20304;-85
2023/04/16 02:04:40;;;;;;;37.07;32.97;;;7.90;89.20;;;;;;4918654;29;20200;-85
2023/04/16 02:07:06;;;;;;;44.33;34.17;;;7.90;89.20;;;;;;4918634;29;20714;-85
2023/04/16 02:09:34;;;;;;;37.73;33.50;;;7.90;89.20;;;;;;4918652;29;20561;-85
2023/04/16 02:12:02;;;;;;;38.03;33.93;;;7.90;89.20;;;;;;4918428;29;20187;-85
2023/04/16 02:14:28;;;;;;;38.73;32.87;;;7.90;89.20;;;;;;4918447;29;20190;-85
2023/04/16 02:16:53;;;;;;;38.33;34.33;;;7.90;89.30;;;;;;4918562;29;20192;-85
2023/04/16 02:19:19;;;;;;;36.27;32.33;;;7.90;89.30;;;;;;4918500;29;20610;-85
2023/04/16 02:21:44;;;;;;;38.43;32.67;;;7.80;89.30;;;;;;4918420;29;20535;-86
2023/04/16 02:24:10;;;;;;;35.90;32.10;;;7.80;89.40;;;;;;4919506;29;20199;-85
2023/04/16 02:26:36;;;;;;;35.33;31.50;;;7.90;89.40;;;;;;4918267;29;20217;-85
2023/04/16 02:29:01;;;;;;;36.60;32.77;;;7.90;89.40;;;;;;4918407;29;20626;-86
2023/04/16 02:31:27;;;;;;;36.83;33.03;;;7.90;89.20;;;;;;4918232;29;20272;-85
2023/04/16 02:33:53;;;;;;;34.93;31.20;;;7.90;89.10;;;;;;4919335;29;20574;-85
2023/04/16 02:36:19;;;;;;;36.43;32.53;;;7.90;89.00;;;;;;4918395;29;20177;-85
2023/04/16 02:38:45;;;;;;;37.20;32.30;;;7.90;89.00;;;;;;4918021;29;20671;-85
2023/04/16 02:41:10;;;;;;;35.70;32.03;;;7.90;88.90;;;;;;4918074;29;20184;-85
2023/04/16 02:43:36;;;;;;;37.50;33.60;;;7.90;88.90;;;;;;4917784;29;20232;-85
2023/04/16 02:46:01;;;;;;;40.60;32.10;;;7.90;88.90;;;;;;4917956;29;20579;-86
2023/04/16 02:48:27;;;;;;;35.53;31.83;;;7.80;89.00;;;;;;4917925;29;20176;-86
2023/04/16 02:50:52;;;;;;;35.73;32.00;;;7.80;89.00;;;;;;4917430;29;20263;-86
2023/04/16 02:53:18;;;;;;;35.83;31.60;;;7.80;89.10;;;;;;4918517;29;20209;-85
2023/04/16 02:55:51;;;;;;;35.80;31.97;;;7.80;89.10;;;;;;4918956;29;20541;-85
2023/04/16 02:58:21;;;;;;;38.73;32.00;;;7.80;89.10;;;;;;4917960;29;20212;-85
2023/04/16 03:00:47;;;;;;;37.20;33.17;;;7.80;89.10;;;;;;4918825;29;20192;-86
2023/04/16 03:03:13;;;;;;;35.80;32.13;;;7.80;89.20;;;;;;4917524;29;20589;-85
2023/04/16 03:05:38;;;;;;;38.83;31.87;;;7.80;89.30;;;;;;4918661;29;20264;-86
2023/04/16 03:08:04;;;;;;;39.10;32.30;;;7.80;89.30;;;;;;4917536;29;20181;-85
2023/04/16 03:10:30;;;;;;;37.33;30.83;;;7.80;89.40;;;;;;4917426;29;20181;-85
2023/04/16 03:12:55;;;;;;;35.67;31.17;;;7.80;89.30;;;;;;4917306;29;20203;-85
2023/04/16 03:15:21;;;;;;;35.43;31.73;;;7.80;89.30;;;;;;4917355;29;20184;-86
2023/04/16 03:17:46;;;;;;;37.53;32.57;;;7.80;89.30;;;;;;4917238;29;20184;-85
2023/04/16 03:20:13;;;;;;;36.43;32.03;;;7.80;89.40;;;;;;4918537;29;20181;-85
2023/04/16 03:22:39;;;;;;;35.37;31.30;;;7.80;89.40;;;;;;4917224;29;20205;-85
2023/04/16 03:25:06;;;;;;;38.03;30.93;;;7.80;89.30;;;;;;4918345;29;20280;-85
2023/04/16 03:27:32;;;;;;;37.60;31.23;;;7.80;89.30;;;;;;4917161;29;20177;-85
2023/04/16 03:29:57;;;;;;;35.90;31.97;;;7.80;89.40;;;;;;4918268;29;20179;-86
2023/04/16 03:32:23;;;;;;;35.10;31.40;;;7.70;89.40;;;;;;4917020;29;20284;-85
2023/04/16 03:34:48;;;;;;;39.13;30.87;;;7.80;89.50;;;;;;4917088;29;20231;-85
2023/04/16 03:37:14;;;;;;;41.40;32.40;;;7.80;89.40;;;;;;4916964;29;20181;-86
2023/04/16 03:39:39;;;;;;;34.43;30.77;;;7.80;89.40;;;;;;4917027;29;20671;-85
2023/04/16 03:42:05;;;;;;;38.50;30.10;;;7.80;89.30;;;;;;4916803;29;20292;-85
2023/04/16 03:44:31;;;;;;;35.40;31.03;;;7.80;89.30;;;;;;4918089;29;20601;-86
2023/04/16 03:46:56;;;;;;;39.33;30.80;;;7.80;89.40;;;;;;4916814;29;20173;-86
2023/04/16 03:49:22;;;;;;;34.63;30.80;;;7.80;89.30;;;;;;4916780;29;20185;-85
2023/04/16 03:51:47;;;;;;;34.67;31.00;;;7.80;89.30;;;;;;4917893;29;20179;-85
2023/04/16 03:54:13;;;;;;;34.93;30.67;;;7.80;89.30;;;;;;4916622;29;20196;-86
2023/04/16 03:56:41;;;;;;;35.27;31.57;;;7.80;89.30;;;;;;4916659;29;20208;-85
2023/04/16 03:59:07;;;;;;;33.33;29.70;;;7.90;89.40;;;;;;4918137;29;20602;-86
2023/04/16 04:01:33;;;;;;;34.33;30.13;;;7.90;89.20;;;;;;4917733;29;20789;-86
2023/04/16 04:03:59;;;;;;;33.60;30.13;;;7.80;89.10;;;;;;4916645;29;20213;-86
2023/04/16 04:06:24;;;;;;;33.23;29.67;;;7.90;89.10;;;;;;4916404;29;20691;-86
2023/04/16 04:08:50;;;;;;;32.60;28.97;;;7.90;89.10;;;;;;4916454;29;20232;-86
2023/04/16 04:11:16;;;;;;;37.33;29.93;;;7.80;89.20;;;;;;4916713;29;20239;-86
2023/04/16 04:13:41;;;;;;;35.60;31.67;;;7.80;89.30;;;;;;4916278;29;20292;-85
2023/04/16 04:16:07;;;;;;;36.83;31.90;;;7.90;89.30;;;;;;4916375;29;20177;-86
2023/04/16 04:18:32;;;;;;;41.40;33.63;;;7.80;89.30;;;;;;4916265;29;20180;-85
2023/04/16 04:20:58;;;;;;;37.43;32.17;;;7.90;89.30;;;;;;4917387;29;20176;-85
2023/04/16 04:23:23;;;;;;;37.93;32.13;;;7.90;89.20;;;;;;4916222;29;20196;-86
2023/04/16 04:25:49;;;;;;;35.73;31.83;;;7.90;89.20;;;;;;4916114;29;20201;-85
2023/04/16 04:28:14;;;;;;;36.23;30.20;;;7.90;89.20;;;;;;4916211;29;20172;-86
2023/04/16 04:30:40;;;;;;;34.87;31.20;;;7.90;89.20;;;;;;4916061;29;20177;-86
2023/04/16 04:33:06;;;;;;;35.50;31.93;;;7.90;89.20;;;;;;4916378;29;20232;-86
2023/04/16 04:35:32;;;;;;;34.17;30.63;;;7.90;89.20;;;;;;4916099;29;20216;-86
2023/04/16 04:37:58;;;;;;;35.63;31.77;;;7.90;89.20;;;;;;4916048;29;20299;-85
2023/04/16 04:40:23;;;;;;;33.83;30.37;;;8.00;89.20;;;;;;4917844;29;20655;-85
2023/04/16 04:42:49;;;;;;;33.67;30.27;;;8.00;89.20;;;;;;4915947;29;20283;-86
2023/04/16 04:45:14;;;;;;;34.67;31.33;;;7.90;89.20;;;;;;4915687;29;20717;-86
2023/04/16 04:47:40;;;;;;;36.87;31.00;;;7.90;89.10;;;;;;4915955;29;20187;-86
2023/04/16 04:50:06;;;;;;;36.17;32.23;;;8.00;89.20;;;;;;4915914;29;20185;-85
2023/04/16 04:52:32;;;;;;;34.53;31.13;;;8.00;89.20;;;;;;4917407;29;20216;-85
2023/04/16 04:54:57;;;;;;;36.93;32.87;;;8.00;89.10;;;;;;4917055;29;20185;-85
2023/04/16 04:57:23;;;;;;;39.40;31.00;;;8.00;89.10;;;;;;4915874;29;20219;-85
2023/04/16 04:59:49;;;;;;;36.70;31.40;;;8.00;89.00;;;;;;4915794;29;20567;-85
2023/04/16 05:02:14;;;;;;;34.27;30.27;;;8.00;89.00;;;;;;4916829;29;20196;-85
2023/04/16 05:04:40;;;;;;;34.30;30.60;;;8.00;89.00;;;;;;4915626;29;20228;-85
2023/04/16 05:07:06;;;;;;;34.40;30.67;;;8.00;89.00;;;;;;4915810;29;20553;-85
2023/04/16 05:09:31;;;;;;;35.07;31.23;;;8.10;89.10;;;;;;4916897;29;20169;-85
2023/04/16 05:11:57;;;;;;;36.00;29.83;;;8.20;89.10;;;;;;4915612;29;20598;-84
2023/04/16 05:14:22;;;;;;;34.03;30.40;;;8.20;88.80;;;;;;4917012;29;20338;-84
2023/04/16 05:16:48;;;;;;;36.00;31.80;;;8.20;88.70;;;;;;4919438;29;20669;-84
2023/04/16 05:19:13;;;;;;;33.03;29.43;;;8.10;88.70;;;;;;4919381;29;20173;-84
2023/04/16 05:21:39;;;;;;;34.50;29.57;;;8.20;88.90;;;;;;4919417;29;20184;-84
2023/04/16 05:24:06;;;;;;;34.87;30.93;;;8.10;88.80;;;;;;4919238;29;20197;-84
2023/04/16 05:26:31;;;;;;;35.33;31.20;;;8.20;88.80;;;;;;4919243;29;20204;-84
2023/04/16 05:28:57;;;;;;;37.57;32.03;;;8.20;88.90;;;;;;4920554;29;20589;-86
2023/04/16 05:31:22;;;;;;;35.37;31.47;;;8.20;88.90;;;;;;4919271;29;20184;-85
2023/04/16 05:33:48;;;;;;;36.50;32.77;;;8.30;88.70;;;;;;4919193;29;20204;-85
2023/04/16 05:36:13;;;;;;;36.33;31.20;;;8.30;88.70;;;;;;4920462;29;20204;-85
2023/04/16 05:38:39;;;;;;;34.77;31.00;;;8.30;88.60;;;;;;4919105;29;20216;-85
2023/04/16 05:41:04;;;;;;;36.00;32.40;;;8.30;88.60;;;;;;4919018;29;20177;-85
2023/04/16 05:43:30;;;;;;;35.33;31.63;;;8.30;88.50;;;;;;4918876;29;20228;-85
2023/04/16 05:45:55;;;;;;;36.43;32.60;;;8.30;88.60;;;;;;4918912;29;20204;-85
2023/04/16 05:48:21;;;;;;;35.27;31.50;;;8.30;88.50;;;;;;4918839;29;20177;-85
2023/04/16 05:50:46;;;;;;;34.93;30.73;;;8.40;88.40;;;;;;4919069;29;20204;-86
2023/04/16 05:53:13;;;;;;;39.87;33.00;;;8.30;88.40;;;;;;4920257;29;20664;-85
2023/04/16 05:55:38;;;;;;;40.47;33.03;;;8.30;88.50;;;;;;4918880;29;20184;-86
2023/04/16 05:58:04;;;;;;;36.47;31.70;;;8.30;88.60;;;;;;4918795;29;20181;-85
2023/04/16 06:00:31;;;;;;;35.37;31.33;;;8.40;88.60;;;;;;4918861;29;20185;-86
2023/04/16 06:02:56;;;;;;;35.77;31.97;;;8.40;88.60;;;;;;4918735;29;20620;-86
2023/04/16 06:05:23;;;;;;;39.27;31.97;;;8.40;88.60;;;;;;4918824;29;20204;-86
2023/04/16 06:07:48;;;;;;;38.97;33.57;;;8.50;88.60;;;;;;4920025;29;20199;-86
2023/04/16 06:10:14;;;;;;;35.50;31.10;;;8.40;88.60;;;;;;4918671;29;20743;-86
2023/04/16 06:12:39;;;;;;;36.63;31.90;;;8.50;88.60;;;;;;4918600;29;20197;-86
2023/04/16 06:15:06;;;;;;;38.30;32.53;;;8.50;88.60;;;;;;4918608;29;20674;-85
2023/04/16 06:17:31;;;;;;;34.70;30.70;;;8.50;88.60;;;;;;4918401;29;20180;-86
2023/04/16 06:19:57;;;;;;;37.43;30.40;;;8.50;88.50;;;;;;4919857;29;20172;-85
2023/04/16 06:22:23;;;;;;;38.10;31.87;;;8.50;88.50;;;;;;4918424;29;20205;-85
2023/04/16 06:24:49;;;;;;;35.13;30.77;;;8.50;88.40;;;;;;4918266;29;20212;-84
2023/04/16 06:27:14;;;;;;;35.63;31.63;;;8.60;88.50;;;;;;4918379;29;20169;-85
2023/04/16 06:29:40;;;;;;;35.07;31.40;;;8.60;88.30;;;;;;4919657;29;20172;-86
2023/04/16 06:32:06;;;;;;;35.13;31.43;;;8.60;88.40;;;;;;4918343;29;20189;-86
2023/04/16 06:34:32;;;;;;;38.13;31.23;;;8.60;88.30;;;;;;4919506;29;20256;-86
2023/04/16 06:36:57;;;;;;;35.57;29.87;;;8.60;88.40;;;;;;4919419;29;20271;-86
2023/04/16 06:39:23;;;;;;;37.43;31.23;;;8.70;88.40;;;;;;4918262;29;20181;-85
2023/04/16 06:41:48;;;;;;;34.03;30.33;;;8.80;88.40;;;;;;4918155;29;20621;-86
2023/04/16 06:44:14;;;;;;;32.30;29.00;;;8.80;88.30;;;;;;4919175;29;20695;-85
2023/04/16 06:46:40;;;;;;;33.93;30.30;;;8.80;88.00;;;;;;4917861;29;20212;-85
2023/04/16 06:49:06;;;;;;;35.90;29.77;;;8.90;87.90;;;;;;4918014;29;20585;-85
2023/04/16 06:51:32;;;;;;;34.40;30.77;;;9.00;87.90;;;;;;4918618;29;20181;-86
2023/04/16 06:53:57;;;;;;;34.80;31.10;;;9.00;87.80;;;;;;4918210;29;20203;-86
2023/04/16 06:56:23;;;;;;;34.50;30.90;;;9.00;87.90;;;;;;4919288;29;20189;-84
2023/04/16 06:58:49;;;;;;;36.17;31.13;;;9.00;87.80;;;;;;4919170;29;20184;-86
2023/04/16 07:01:16;;;;;;;34.87;30.90;;;9.00;87.90;;;;;;4918151;29;20195;-85
2023/04/16 07:03:41;;;;;;;34.43;30.43;;;9.10;88.10;;;;;;4917965;29;20698;-85
2023/04/16 07:06:07;;;;;;;36.43;31.37;;;9.10;88.00;;;;;;4917747;29;20201;-86
2023/04/16 07:08:32;;;;;;;33.10;29.60;;;9.10;88.00;;;;;;4917813;29;20181;-86
2023/04/16 07:10:58;;;;;;;33.67;30.17;;;9.10;88.00;;;;;;4918936;29;20181;-86
2023/04/16 07:13:24;;;;;;;32.80;29.40;;;9.10;87.90;;;;;;4917563;29;20201;-86
2023/04/16 07:15:50;;;;;;;33.93;30.53;;;9.10;87.80;;;;;;4918949;29;20181;-86
2023/04/16 07:18:15;;;;;;;32.93;29.47;;;9.20;87.80;;;;;;4917654;29;20275;-86
2023/04/16 07:20:41;;;;;;;33.00;29.67;;;9.20;87.70;;;;;;4917573;29;20275;-86
2023/04/16 07:23:06;;;;;;;32.03;28.87;;;9.30;87.60;;;;;;4917685;29;20212;-86
2023/04/16 07:25:32;;;;;;;30.70;27.63;;;9.30;87.40;;;;;;4917268;29;20204;-84
2023/04/16 07:27:57;;;;;;;32.27;28.80;;;9.30;87.20;;;;;;4917448;29;20551;-85
2023/04/16 07:30:23;;;;;;;34.03;28.87;;;9.30;87.20;;;;;;4917250;29;20173;-86
2023/04/16 07:32:50;;;;;;;33.27;29.63;;;9.40;87.20;;;;;;4918284;29;20615;-85
2023/04/16 07:35:16;;;;;;;33.27;29.40;;;9.40;87.10;;;;;;4918479;29;20585;-86
2023/04/16 07:37:41;;;;;;;32.30;28.83;;;9.50;87.10;;;;;;4916776;29;20284;-85
2023/04/16 07:40:07;;;;;;;31.43;28.30;;;9.50;86.90;;;;;;4917143;29;20181;-85
2023/04/16 07:42:33;;;;;;;33.20;29.70;;;9.50;86.90;;;;;;4918016;29;20675;-85
2023/04/16 07:44:59;;;;;;;31.87;28.17;;;9.50;86.90;;;;;;4916899;29;20267;-85
2023/04/16 07:47:25;;;;;;;31.00;26.90;;;9.50;86.80;;;;;;4918116;29;20659;-86
2023/04/16 07:49:52;;;;;;;31.87;27.43;;;9.60;86.70;;;;;;4918435;29;20635;-85
2023/04/16 07:52:17;;;;;;;29.93;26.70;;;9.60;86.40;;;;;;4917073;29;20308;-86
2023/04/16 07:54:43;;;;;;;31.13;28.03;;;9.60;86.20;;;;;;4916937;29;20264;-86
2023/04/16 07:57:10;;;;;;;30.53;27.20;;;9.70;85.80;;;;;;4917043;29;20227;-86
2023/04/16 07:59:35;;;;;;;30.50;27.40;;;9.70;85.50;;;;;;4917965;29;20177;-86
2023/04/16 08:02:01;;;;;;;29.40;26.20;;;9.70;85.40;;;;;;4917056;29;20586;-85
2023/04/16 08:04:26;;;;;;;30.33;27.13;;;9.80;85.00;;;;;;4916668;29;20185;-85
2023/04/16 08:06:53;;;;;;;31.67;26.60;;;9.80;84.80;;;;;;4916507;29;20212;-85
2023/04/16 08:09:20;;;;;;;29.37;26.40;;;9.80;85.00;;;;;;4916743;29;20192;-85
2023/04/16 08:11:47;;;;;;;32.20;25.30;;;9.80;84.70;;;;;;4917934;29;20165;-85
2023/04/16 08:14:13;;;;;;;29.77;26.63;;;9.80;84.50;;;;;;4917732;29;20570;-85
2023/04/16 08:16:39;;;;;;;27.27;24.47;;;9.90;84.40;;;;;;4916421;29;20191;-86
2023/04/16 08:19:05;;;;;;;29.27;25.50;;;9.90;84.10;;;;;;4916403;29;20264;-86
2023/04/16 08:21:30;;;;;;;38.57;26.93;;;10.00;84.30;;;;;;4917567;29;20173;-85
2023/04/16 08:23:56;;;;;;;28.00;25.07;;;10.00;83.80;;;;;;4916206;29;20279;-85
2023/04/16 08:26:22;;;;;;;27.83;25.00;;;10.10;83.90;;;;;;4916234;29;20201;-85
2023/04/16 08:28:47;;;;;;;27.43;24.67;;;10.10;83.90;;;;;;4917476;29;20341;-85
2023/04/16 08:31:13;;;;;;;28.50;24.63;;;10.20;83.90;;;;;;4917264;29;20177;-85
2023/04/16 08:33:39;;;;;;;29.63;26.47;;;10.20;83.60;;;;;;4916027;29;20291;-85
2023/04/16 08:36:05;;;;;;;28.90;25.20;;;10.20;83.30;;;;;;4916031;29;20248;-85
2023/04/16 08:38:30;;;;;;;28.20;25.20;;;10.20;83.60;;;;;;4916135;29;20193;-85
2023/04/16 08:41:01;;;;;;;33.13;25.33;;;10.30;83.70;;;;;;4917255;29;20216;-85
2023/04/16 08:43:28;;;;;;;27.90;24.97;;;10.20;83.50;;;;;;4917029;29;20279;-85
2023/04/16 08:45:56;;;;;;;30.70;25.33;;;10.20;83.20;;;;;;4917467;29;20185;-84
2023/04/16 08:48:22;;;;;;;28.03;25.10;;;10.20;83.50;;;;;;4916255;29;20562;-86
2023/04/16 08:50:51;;;;;;;28.27;25.37;;;10.30;83.30;;;;;;4916927;29;20308;-86
2023/04/16 08:53:21;;;;;;;26.87;23.80;;;10.30;83.00;;;;;;4916324;29;20197;-85
2023/04/16 08:55:49;;;;;;;28.43;25.43;;;10.30;83.20;;;;;;4916253;29;20228;-86
2023/04/16 08:58:18;;;;;;;31.20;25.13;;;10.30;83.20;;;;;;4916304;29;20189;-86
2023/04/16 09:00:45;;;;;;;29.83;26.17;;;10.30;82.80;;;;;;4916456;29;20236;-86
2023/04/16 09:03:11;;;;;;;27.73;25.03;;;10.30;82.60;;;;;;4916087;29;20204;-85
2023/04/16 09:05:37;;;;;;;26.77;24.13;;;10.40;82.80;;;;;;4915968;29;20291;-85
2023/04/16 09:08:05;;;;;;;28.87;26.00;;;10.40;82.90;;;;;;4916300;29;20173;-85
2023/04/16 09:10:31;;;;;;;27.00;24.33;;;10.50;82.90;;;;;;4916143;29;20180;-85
2023/04/16 09:12:57;;;;;;;28.93;25.93;;;10.40;82.30;;;;;;4916161;29;20680;-85
2023/04/16 09:15:26;;;;;;;29.27;25.53;;;10.40;82.60;;;;;;4917299;29;20176;-85
2023/04/16 09:17:52;;;;;;;26.30;23.77;;;10.40;82.80;;;;;;4915976;29;20184;-85
2023/04/16 09:20:19;;;;;;;27.20;24.23;;;10.40;82.80;;;;;;4917240;29;20232;-85
2023/04/16 09:22:45;;;;;;;27.23;24.43;;;10.50;82.70;;;;;;4917250;29;20207;-85
2023/04/16 09:25:11;;;;;;;32.03;24.13;;;10.40;82.50;;;;;;4916009;29;20209;-86
2023/04/16 09:27:37;;;;;;;26.80;24.27;;;10.50;82.50;;;;;;4916235;29;20173;-86
2023/04/16 09:30:23;;;;;;;27.80;24.43;;;10.50;82.20;;;;;;4916130;29;20547;-85
2023/04/16 09:32:49;;;;;;;32.20;24.87;;;10.50;82.10;;;;;;4917369;29;20200;-86
2023/04/16 09:35:19;;;;;;;28.03;23.63;;;10.50;81.90;;;;;;4915990;29;20177;-85
2023/04/16 09:37:55;;;;;;;26.90;23.97;;;10.50;81.90;;;;;;4917283;29;20181;-86
2023/04/16 09:40:26;;;;;;;32.13;24.57;;;10.50;82.00;;;;;;4915886;29;20168;-86
2023/04/16 09:42:55;;;;;;;32.30;24.93;;;10.50;81.70;;;;;;4915884;29;20197;-85
2023/04/16 09:45:20;;;;;;;31.63;24.73;;;10.50;81.90;;;;;;4915655;29;20212;-85
2023/04/16 09:47:46;;;;;;;33.27;24.40;;;10.50;82.10;;;;;;4915711;29;20182;-85
2023/04/16 09:50:16;;;;;;;26.90;24.13;;;10.40;82.10;;;;;;4916995;29;20173;-86
2023/04/16 09:52:44;;;;;;;26.57;23.70;;;10.50;82.60;;;;;;4916728;29;20574;-86
2023/04/16 09:55:10;;;;;;;27.90;24.37;;;10.50;82.70;;;;;;4916915;29;20260;-86
2023/04/16 09:57:37;;;;;;;27.17;24.37;;;10.50;82.40;;;;;;4915760;29;20263;-86
2023/04/16 10:00:05;;;;;;;26.90;24.27;;;10.60;82.60;;;;;;4916960;29;20571;-85
2023/04/16 10:02:31;;;;;;;26.47;23.37;;;10.70;82.10;;;;;;4920015;29;20192;-86
2023/04/16 10:05:00;;;;;;;25.60;23.10;;;10.70;81.70;;;;;;4918750;29;20304;-86
2023/04/16 10:07:33;;;;;;;26.20;23.43;;;10.70;81.40;;;;;;4918795;29;20180;-85
2023/04/16 10:09:58;;;;;;;26.93;24.43;;;10.70;81.60;;;;;;4918709;29;20181;-85
2023/04/16 10:12:24;;;;;;;30.20;25.57;;;10.70;81.90;;;;;;4920355;29;20251;-86
2023/04/16 10:14:50;;;;;;;29.00;23.73;;;10.70;82.10;;;;;;4919647;29;20180;-85
2023/04/16 10:17:16;;;;;;;26.43;23.67;;;10.80;82.30;;;;;;4920578;29;20204;-86
2023/04/16 10:19:42;;;;;;;27.70;23.03;;;10.80;82.10;;;;;;4919931;29;20177;-86
2023/04/16 10:22:08;;;;;;;28.33;24.90;;;10.70;81.40;;;;;;4921750;29;20177;-86
2023/04/16 10:24:34;;;;;;;26.30;23.60;;;10.70;81.20;;;;;;4920172;29;20184;-86
2023/04/16 10:27:00;;;;;;;25.80;23.17;;;10.70;81.10;;;;;;4919346;29;20180;-86
2023/04/16 10:29:30;;;;;;;26.63;23.93;;;10.80;81.00;;;;;;4919655;29;20184;-86
2023/04/16 10:31:57;;;;;;;28.47;23.57;;;10.80;81.00;;;;;;4918323;29;20180;-85
2023/04/16 10:34:23;;;;;;;26.77;24.03;;;10.80;81.20;;;;;;4918435;29;20576;-86
2023/04/16 10:36:53;;;;;;;26.43;23.83;;;11.00;81.20;;;;;;4919821;29;20580;-86
2023/04/16 10:39:26;;;;;;;27.13;24.00;;;11.00;81.40;;;;;;4919414;29;20181;-86
2023/04/16 10:42:06;;;;;;;30.80;23.73;;;11.00;81.10;;;;;;4918246;29;20300;-85
2023/04/16 10:44:32;;;;;;;26.67;23.77;;;11.10;81.30;;;;;;4918190;29;20656;-86
2023/04/16 10:46:58;;;;;;;26.07;23.47;;;11.10;80.80;;;;;;4918079;29;20223;-86
2023/04/16 10:49:25;;;;;;;25.93;23.17;;;11.00;80.80;;;;;;4918129;29;20181;-86
2023/04/16 10:51:59;;;;;;;25.80;23.33;;;11.10;81.00;;;;;;4918189;29;20193;-85
2023/04/16 10:54:27;;;;;;;28.53;23.47;;;11.00;80.10;;;;;;4918001;29;20204;-86
2023/04/16 10:56:56;;;;;;;26.17;23.43;;;11.00;80.30;;;;;;4919274;29;20180;-84
2023/04/16 10:59:22;;;;;;;30.23;23.87;;;11.10;80.80;;;;;;4918102;29;20651;-85
2023/04/16 11:01:51;;;;;;;26.07;23.47;;;11.10;80.40;;;;;;4917986;29;20191;-85
2023/04/16 11:04:19;;;;;;;27.13;24.07;;;11.20;80.40;;;;;;4919072;29;20260;-85
2023/04/16 11:07:18;;;;;;;26.83;24.03;;;11.20;80.30;;;;;;4917859;29;20209;-85
2023/04/16 11:09:56;;;;;;;25.40;22.70;;;11.30;81.10;;;;;;4897170;29;20566;-85
2023/04/16 11:12:28;;;;;;;28.73;23.73;;;11.20;80.20;;;;;;4916957;29;20209;-85
2023/04/16 11:15:00;;;;;;;24.80;22.33;;;11.20;80.40;;;;;;4917608;29;20666;-85
2023/04/16 11:17:45;;;;;;;32.93;23.83;;;11.30;80.80;;;;;;4918751;29;20193;-85
2023/04/16 11:20:17;;;;;;;25.47;22.80;;;11.30;80.70;;;;;;4917705;29;20173;-85
2023/04/16 11:22:46;;;;;;;25.10;22.60;;;11.20;80.10;;;;;;4917432;29;20200;-85
2023/04/16 11:25:12;;;;;;;24.63;22.20;;;11.30;81.10;;;;;;4917546;29;20300;-85
2023/04/16 11:27:38;;;;;;;27.53;24.63;;;11.30;80.50;;;;;;4917354;29;20220;-85
2023/04/16 11:30:07;;;;;;;24.60;22.20;;;11.30;80.70;;;;;;4917305;29;20233;-85
2023/04/16 11:32:33;;;;;;;27.23;24.63;;;11.40;80.60;;;;;;4917399;29;20205;-85
2023/04/16 11:35:04;;;;;;;24.80;22.27;;;11.40;80.20;;;;;;4918615;29;20196;-85
2023/04/16 11:37:37;;;;;;;29.30;23.70;;;11.40;80.60;;;;;;4917353;29;20180;-85
2023/04/16 11:40:08;;;;;;;24.10;21.70;;;11.40;80.80;;;;;;4917215;29;20182;-85
2023/04/16 11:42:39;;;;;;;24.83;22.23;;;11.30;79.90;;;;;;4917423;29;20211;-85
2023/04/16 11:45:06;;;;;;;23.80;21.40;;;11.20;80.60;;;;;;4917115;29;20223;-85
2023/04/16 11:47:44;;;;;;;23.60;21.17;;;11.20;80.70;;;;;;4917155;29;20663;-85
2023/04/16 11:50:25;;;;;;;25.60;23.07;;;11.20;80.70;;;;;;4917040;29;20176;-85
2023/04/16 11:52:52;;;;;;;24.93;22.33;;;11.10;81.10;;;;;;4917347;29;20690;-85
2023/04/16 11:55:19;;;;;;;26.43;23.60;;;11.10;81.40;;;;;;4917010;29;20188;-85
2023/04/16 11:57:45;;;;;;;26.10;23.47;;;11.10;81.00;;;;;;4918314;29;20650;-85
2023/04/16 12:00:12;;;;;;;26.37;23.77;;;11.00;81.20;;;;;;4918089;29;20184;-85
2023/04/16 12:02:49;;;;;;;25.67;22.90;;;11.00;81.40;;;;;;4916889;29;20287;-85
2023/04/16 12:05:33;;;;;;;26.63;23.70;;;11.00;81.10;;;;;;4916835;29;20231;-85
2023/04/16 12:08:01;;;;;;;26.43;23.70;;;10.90;81.50;;;;;;4916864;29;20169;-85
2023/04/16 12:10:27;;;;;;;25.27;22.77;;;10.90;81.80;;;;;;4916629;29;20548;-85
2023/04/16 12:12:53;;;;;;;25.57;22.83;;;10.80;81.70;;;;;;4916585;29;20203;-85
2023/04/16 12:15:18;;;;;;;28.23;23.83;;;10.70;81.50;;;;;;4916773;29;20181;-85
2023/04/16 12:17:44;;;;;;;27.17;24.37;;;10.70;81.60;;;;;;4916663;29;20240;-85
2023/04/16 12:20:11;;;;;;;25.17;22.50;;;10.70;82.20;;;;;;4917756;29;20188;-85
2023/04/16 12:22:45;;;;;;;26.57;24.00;;;10.60;82.40;;;;;;4917232;29;20662;-85
2023/04/16 12:25:12;;;;;;;33.50;24.90;;;10.70;82.50;;;;;;4917708;29;20192;-85
2023/04/16 12:27:50;;;;;;;26.83;24.03;;;10.70;82.90;;;;;;4916557;29;20176;-85
2023/04/16 12:30:16;;;;;;;25.93;23.30;;;10.70;82.60;;;;;;4916542;29;20161;-85